createdAt,value
2022-12-25T00:00:30.476Z,100.00
2022-12-25T00:03:32.156Z,100.00
2022-12-25T00:06:33.747Z,100.00
2022-12-25T00:09:35.294Z,100.00
2022-12-25T00:12:36.813Z,100.00
2022-12-25T00:15:41.209Z,100.00
2022-12-25T00:18:42.823Z,100.00
2022-12-25T00:21:44.405Z,100.00
2022-12-25T00:24:47.636Z,100.00
2022-12-25T00:27:49.230Z,100.00
2022-12-25T00:30:51.541Z,100.00
2022-12-25T00:33:53.280Z,100.00
2022-12-25T00:36:54.871Z,100.00
2022-12-25T00:39:56.424Z,100.00
2022-12-25T00:42:58.035Z,100.00
2022-12-25T00:46:02.162Z,100.00
2022-12-25T00:49:03.931Z,100.00
2022-12-25T00:52:05.662Z,100.00
2022-12-25T00:55:07.552Z,100.00
2022-12-25T00:58:09.189Z,100.00
2022-12-25T01:01:11.719Z,100.00
2022-12-25T01:04:13.623Z,100.00
2022-12-25T01:07:16.999Z,100.00
2022-12-25T01:10:24.568Z,100.00
2022-12-25T01:13:26.728Z,100.00
2022-12-25T01:16:29.055Z,100.00
2022-12-25T01:19:30.682Z,100.00
2022-12-25T01:22:32.366Z,100.00
2022-12-25T01:25:33.963Z,100.00
2022-12-25T01:28:35.989Z,100.00
2022-12-25T01:31:37.568Z,100.00
2022-12-25T01:34:39.319Z,100.00
2022-12-25T01:37:40.908Z,100.00
2022-12-25T01:40:42.773Z,100.00
2022-12-25T01:43:59.344Z,100.00
2022-12-25T01:47:00.956Z,100.00
2022-12-25T01:50:02.565Z,100.00
2022-12-25T01:53:05.879Z,100.00
2022-12-25T01:56:09.193Z,100.00
2022-12-25T01:59:12.606Z,100.00
2022-12-25T02:02:14.861Z,100.00
2022-12-25T02:05:24.765Z,100.00
2022-12-25T02:08:26.531Z,100.00
2022-12-25T02:11:46.559Z,100.00
2022-12-25T02:14:50.668Z,100.00
2022-12-25T02:18:01.097Z,100.00
2022-12-25T02:21:36.701Z,100.00
2022-12-25T02:25:23.936Z,100.00
2022-12-25T02:28:50.318Z,100.00
2022-12-25T02:32:01.985Z,100.00
2022-12-25T02:35:20.193Z,100.00
2022-12-25T02:38:27.901Z,100.00
2022-12-25T02:41:36.892Z,100.00
2022-12-25T02:45:13.189Z,100.00
2022-12-25T02:48:36.280Z,100.00
2022-12-25T02:52:01.457Z,100.00
2022-12-25T02:55:43.237Z,100.00
2022-12-25T02:59:04.355Z,100.00
2022-12-25T03:02:26.230Z,100.00
2022-12-25T03:05:50.040Z,100.00
2022-12-25T03:08:54.938Z,100.00
2022-12-25T03:12:05.937Z,100.00
2022-12-25T03:15:28.321Z,100.00
2022-12-25T03:18:32.671Z,100.00
2022-12-25T03:21:52.700Z,100.00
2022-12-25T03:25:12.604Z,100.00
2022-12-25T03:28:14.214Z,100.00
2022-12-25T03:31:26.714Z,100.00
2022-12-25T03:35:02.638Z,100.00
2022-12-25T03:38:38.336Z,100.00
2022-12-25T03:42:05.563Z,100.00
2022-12-25T03:45:37.881Z,100.00
2022-12-25T03:49:02.253Z,100.00
2022-12-25T03:52:25.309Z,100.00
2022-12-25T03:55:59.248Z,100.00
2022-12-25T03:59:23.535Z,100.00
2022-12-25T04:02:44.315Z,100.00
2022-12-25T04:06:15.227Z,100.00
2022-12-25T04:09:35.245Z,100.00
2022-12-25T04:12:55.023Z,100.00
2022-12-25T04:16:14.904Z,100.00
2022-12-25T04:19:35.182Z,100.00
2022-12-25T04:22:55.294Z,100.00
2022-12-25T04:26:18.628Z,100.00
2022-12-25T04:29:38.660Z,100.00
2022-12-25T04:33:09.569Z,100.00
2022-12-25T04:36:13.769Z,100.00
2022-12-25T04:39:15.310Z,100.00
2022-12-25T04:42:17.377Z,100.00
2022-12-25T04:45:19.363Z,100.00
2022-12-25T04:48:21.208Z,100.00
2022-12-25T04:51:25.156Z,100.00
2022-12-25T04:54:26.747Z,100.00
2022-12-25T04:57:28.281Z,100.00
2022-12-25T05:00:29.844Z,100.00
2022-12-25T05:03:32.120Z,100.00
2022-12-25T05:06:33.829Z,100.00
2022-12-25T05:09:35.388Z,100.00
2022-12-25T05:12:37.010Z,100.00
2022-12-25T05:15:42.548Z,100.00
2022-12-25T05:18:44.933Z,100.00
2022-12-25T05:21:46.502Z,100.00
2022-12-25T05:24:48.083Z,100.00
2022-12-25T05:27:53.904Z,100.00
2022-12-25T05:30:58.538Z,100.00
2022-12-25T05:34:00.219Z,100.00
2022-12-25T05:37:01.704Z,100.00
2022-12-25T05:40:04.857Z,100.00
2022-12-25T05:43:06.817Z,100.00
2022-12-25T05:46:10.355Z,100.00
2022-12-25T05:49:12.523Z,100.00
2022-12-25T05:52:14.298Z,100.00
2022-12-25T05:55:15.936Z,100.00
2022-12-25T05:58:17.444Z,100.00
2022-12-25T06:01:24.522Z,100.00
2022-12-25T06:04:26.836Z,100.00
2022-12-25T06:07:28.366Z,100.00
2022-12-25T06:10:29.877Z,100.00
2022-12-25T06:13:32.883Z,100.00
2022-12-25T06:16:38.200Z,100.00
2022-12-25T06:19:42.688Z,100.00
2022-12-25T06:22:44.210Z,100.00
2022-12-25T06:25:45.888Z,100.00
2022-12-25T06:28:47.779Z,100.00
2022-12-25T06:31:49.726Z,100.00
2022-12-25T06:34:51.245Z,100.00
2022-12-25T06:37:52.838Z,100.00
2022-12-25T06:40:54.375Z,100.00
2022-12-25T06:43:58.572Z,100.00
2022-12-25T06:47:00.125Z,100.00
2022-12-25T06:50:01.640Z,100.00
2022-12-25T06:53:03.211Z,100.00
2022-12-25T06:56:10.522Z,100.00
2022-12-25T06:59:12.460Z,100.00
2022-12-25T07:02:20.272Z,100.00
2022-12-25T07:05:21.976Z,100.00
2022-12-25T07:08:23.560Z,100.00
2022-12-25T07:11:25.286Z,100.00
2022-12-25T07:14:26.838Z,100.00
2022-12-25T07:17:28.411Z,100.00
2022-12-25T07:20:30.065Z,100.00
2022-12-25T07:23:31.558Z,100.00
2022-12-25T07:26:33.201Z,100.00
2022-12-25T07:29:35.195Z,100.00
2022-12-25T07:32:36.927Z,100.00
2022-12-25T07:35:38.722Z,100.00
2022-12-25T07:38:43.451Z,100.00
2022-12-25T07:41:45.135Z,100.00
2022-12-25T07:44:49.626Z,100.00
2022-12-25T07:47:53.836Z,100.00
2022-12-25T07:51:06.361Z,100.00
2022-12-25T07:54:08.192Z,100.00
2022-12-25T07:57:09.771Z,100.00
2022-12-25T08:00:12.071Z,100.00
2022-12-25T08:03:15.904Z,100.00
2022-12-25T08:06:18.408Z,100.00
2022-12-25T08:09:19.930Z,100.00
2022-12-25T08:12:21.557Z,100.00
2022-12-25T08:15:23.158Z,100.00
2022-12-25T08:18:29.956Z,100.00
2022-12-25T08:21:32.091Z,100.00
2022-12-25T08:24:33.593Z,100.00
2022-12-25T08:27:35.640Z,100.00
2022-12-25T08:30:41.522Z,100.00
2022-12-25T08:33:44.283Z,100.00
2022-12-25T08:36:45.967Z,100.00
2022-12-25T08:39:47.732Z,100.00
2022-12-25T08:42:49.386Z,100.00
2022-12-25T08:45:50.901Z,100.00
2022-12-25T08:48:52.482Z,100.00
2022-12-25T08:51:54.181Z,100.00
2022-12-25T08:54:56.318Z,100.00
2022-12-25T08:57:57.870Z,100.00
2022-12-25T09:01:00.239Z,100.00
2022-12-25T09:04:01.876Z,100.00
2022-12-25T09:07:03.658Z,100.00
2022-12-25T09:10:05.829Z,100.00
2022-12-25T09:13:07.401Z,100.00
2022-12-25T09:16:34.245Z,100.00
2022-12-25T09:19:35.874Z,100.00
2022-12-25T09:22:37.415Z,100.00
2022-12-25T09:25:39.044Z,100.00
2022-12-25T09:28:45.112Z,100.00
2022-12-25T09:31:50.193Z,100.00
2022-12-25T09:34:51.927Z,100.00
2022-12-25T09:37:53.533Z,100.00
2022-12-25T09:41:05.204Z,100.00
2022-12-25T09:44:09.911Z,100.00
2022-12-25T09:47:15.044Z,100.00
2022-12-25T09:50:23.198Z,100.00
2022-12-25T09:53:32.589Z,100.00
2022-12-25T09:56:34.467Z,100.00
2022-12-25T09:59:35.960Z,100.00
2022-12-25T10:03:05.520Z,100.00
2022-12-25T10:06:24.977Z,100.00
2022-12-25T10:09:35.673Z,100.00
2022-12-25T10:13:11.209Z,100.00
2022-12-25T10:16:41.815Z,100.00
2022-12-25T10:19:50.084Z,100.00
2022-12-25T10:22:57.445Z,100.00
2022-12-25T10:25:59.177Z,100.00
2022-12-25T10:29:14.461Z,100.00
2022-12-25T10:32:16.067Z,100.00
2022-12-25T10:35:20.970Z,100.00
2022-12-25T10:38:22.538Z,100.00
2022-12-25T10:41:27.049Z,100.00
2022-12-25T10:44:28.698Z,100.00
2022-12-25T10:47:38.103Z,100.00
2022-12-25T10:50:43.115Z,99.28
2022-12-25T10:53:44.656Z,98.99
2022-12-25T10:57:22.593Z,98.92
2022-12-25T11:00:27.107Z,98.32
2022-12-25T11:03:37.198Z,96.89
2022-12-25T11:06:38.800Z,96.09
2022-12-25T11:09:40.437Z,95.87
2022-12-25T11:12:44.656Z,95.61
2022-12-25T11:15:49.090Z,96.83
2022-12-25T11:18:53.058Z,100.00
2022-12-25T11:21:57.788Z,100.00
2022-12-25T11:25:15.407Z,100.00
2022-12-25T11:28:17.014Z,100.00
2022-12-25T11:31:21.846Z,100.00
2022-12-25T11:34:41.238Z,100.00
2022-12-25T11:37:49.115Z,100.00
2022-12-25T11:41:01.034Z,100.00
2022-12-25T11:44:08.083Z,100.00
2022-12-25T11:47:24.527Z,100.00
2022-12-25T11:50:40.275Z,100.00
2022-12-25T11:53:51.038Z,100.00
2022-12-25T11:56:53.384Z,100.00
2022-12-25T12:00:09.449Z,100.00
2022-12-25T12:03:21.833Z,100.00
2022-12-25T12:06:31.222Z,100.00
2022-12-25T12:09:38.107Z,100.00
2022-12-25T12:13:21.397Z,100.00
2022-12-25T12:16:23.432Z,100.00
2022-12-25T12:19:29.493Z,100.00
2022-12-25T12:22:31.211Z,100.00
2022-12-25T12:25:39.776Z,100.00
2022-12-25T12:28:45.753Z,100.00
2022-12-25T12:31:49.941Z,100.00
2022-12-25T12:34:51.827Z,100.00
2022-12-25T12:38:00.603Z,100.00
2022-12-25T12:41:05.602Z,100.00
2022-12-25T12:44:07.704Z,100.00
2022-12-25T12:47:39.356Z,100.00
2022-12-25T12:50:42.001Z,100.00
2022-12-25T12:53:43.943Z,100.00
2022-12-25T12:56:58.961Z,99.27
2022-12-25T13:00:08.547Z,99.04
2022-12-25T13:03:17.831Z,97.05
2022-12-25T13:06:43.757Z,94.39
2022-12-25T13:10:23.728Z,93.31
2022-12-25T13:13:30.483Z,92.90
2022-12-25T13:16:52.888Z,91.05
2022-12-25T13:19:59.674Z,89.66
2022-12-25T13:23:01.226Z,89.43
2022-12-25T13:26:06.123Z,89.26
2022-12-25T13:29:34.415Z,88.81
2022-12-25T13:32:36.144Z,86.46
2022-12-25T13:35:43.445Z,84.89
2022-12-25T13:38:46.866Z,83.93
2022-12-25T13:42:06.736Z,82.98
2022-12-25T13:45:14.083Z,80.70
2022-12-25T13:48:17.605Z,79.16
2022-12-25T13:51:20.465Z,78.42
2022-12-25T13:54:22.110Z,77.86
2022-12-25T13:57:54.634Z,78.48
2022-12-25T14:01:01.492Z,79.65
2022-12-25T14:04:03.347Z,80.72
2022-12-25T14:07:10.361Z,80.61
2022-12-25T14:10:12.564Z,81.28
2022-12-25T14:13:16.199Z,82.34
2022-12-25T14:16:19.364Z,83.77
2022-12-25T14:19:32.468Z,85.98
2022-12-25T14:22:35.430Z,87.79
2022-12-25T14:25:42.877Z,89.28
2022-12-25T14:28:48.880Z,90.80
2022-12-25T14:31:50.599Z,92.02
2022-12-25T14:34:59.567Z,92.52
2022-12-25T14:38:01.284Z,93.11
2022-12-25T14:41:07.481Z,94.51
2022-12-25T14:44:33.927Z,94.73
2022-12-25T14:47:54.031Z,94.58
2022-12-25T14:51:06.861Z,96.03
2022-12-25T14:54:16.650Z,96.80
2022-12-25T14:57:30.504Z,98.35
2022-12-25T15:00:35.561Z,99.70
2022-12-25T15:03:37.881Z,100.00
2022-12-25T15:06:59.857Z,100.00
2022-12-25T15:10:46.888Z,100.00
2022-12-25T15:13:24.042Z,100.00
2022-12-25T15:16:31.779Z,100.00
2022-12-25T15:19:38.692Z,100.00
2022-12-25T15:23:10.315Z,100.00
2022-12-25T15:26:02.123Z,91.50
2022-12-25T15:29:03.708Z,81.95
2022-12-25T15:32:05.319Z,76.25
2022-12-25T15:35:07.347Z,73.41
2022-12-25T15:38:08.920Z,71.92
2022-12-25T15:41:37.663Z,71.68
2022-12-25T15:44:40.609Z,68.69
2022-12-25T15:47:42.171Z,65.49
2022-12-25T15:50:44.319Z,65.46
2022-12-25T15:53:45.941Z,65.56
2022-12-25T15:57:07.556Z,64.54
2022-12-25T16:00:17.198Z,65.00
2022-12-25T16:03:18.781Z,64.50
2022-12-25T16:06:20.253Z,64.34
2022-12-25T16:09:22.229Z,64.54
2022-12-25T16:12:23.782Z,64.12
2022-12-25T16:15:25.312Z,63.69
2022-12-25T16:18:27.660Z,63.65
2022-12-25T16:21:38.147Z,64.17
2022-12-25T16:24:42.545Z,64.56
2022-12-25T16:27:44.486Z,63.23
2022-12-25T16:30:47.555Z,63.57
2022-12-25T16:33:49.125Z,63.99
2022-12-25T16:36:53.990Z,63.56
2022-12-25T16:39:56.816Z,63.65
2022-12-25T16:42:58.757Z,63.31
2022-12-25T16:46:00.333Z,63.64
2022-12-25T16:49:03.451Z,63.62
2022-12-25T16:52:05.094Z,63.24
2022-12-25T16:55:06.988Z,63.14
2022-12-25T16:58:08.526Z,63.51
2022-12-25T17:01:12.330Z,63.51
2022-12-25T17:04:14.219Z,63.88
2022-12-25T17:07:17.359Z,63.63
2022-12-25T17:10:19.772Z,64.70
2022-12-25T17:13:21.388Z,65.00
2022-12-25T17:16:27.139Z,64.78
2022-12-25T17:19:28.831Z,64.84
2022-12-25T17:22:30.813Z,64.48
2022-12-25T17:25:36.749Z,64.43
2022-12-25T17:28:38.599Z,63.93
2022-12-25T17:31:41.033Z,63.86
2022-12-25T17:34:42.653Z,64.45
2022-12-25T17:37:44.211Z,64.62
2022-12-25T17:40:54.271Z,65.03
2022-12-25T17:43:56.119Z,65.43
2022-12-25T17:46:58.135Z,64.02
2022-12-25T17:50:00.363Z,62.88
2022-12-25T17:53:02.683Z,63.17
2022-12-25T17:56:05.039Z,63.39
2022-12-25T17:59:09.609Z,63.58
2022-12-25T18:02:11.907Z,63.33
2022-12-25T18:05:13.627Z,63.79
2022-12-25T18:08:15.553Z,64.07
2022-12-25T18:11:20.737Z,64.34
2022-12-25T18:14:22.276Z,64.07
2022-12-25T18:17:23.783Z,64.38
2022-12-25T18:20:25.320Z,64.52
2022-12-25T18:23:26.935Z,64.54
2022-12-25T18:26:28.958Z,64.85
2022-12-25T18:29:30.539Z,64.88
2022-12-25T18:32:32.212Z,65.06
2022-12-25T18:35:41.128Z,65.30
2022-12-25T18:38:47.376Z,65.05
2022-12-25T18:42:07.797Z,65.24
2022-12-25T18:45:11.655Z,65.52
2022-12-25T18:48:13.202Z,65.33
2022-12-25T18:51:17.726Z,64.74
2022-12-25T18:54:19.533Z,64.77
2022-12-25T18:57:21.224Z,65.01
2022-12-25T19:00:23.238Z,65.36
2022-12-25T19:03:25.620Z,65.19
2022-12-25T19:06:28.587Z,65.31
2022-12-25T19:09:31.274Z,64.80
2022-12-25T19:12:33.144Z,64.50
2022-12-25T19:15:35.699Z,64.40
2022-12-25T19:18:38.553Z,64.39
2022-12-25T19:21:40.673Z,64.76
2022-12-25T19:24:42.627Z,64.97
2022-12-25T19:27:44.586Z,64.97
2022-12-25T19:30:46.216Z,65.21
2022-12-25T19:33:47.895Z,65.71
2022-12-25T19:36:49.439Z,65.64
2022-12-25T19:39:50.946Z,65.68
2022-12-25T19:42:52.528Z,65.94
2022-12-25T19:45:54.120Z,66.42
2022-12-25T19:48:56.549Z,66.98
2022-12-25T19:51:58.268Z,67.79
2022-12-25T19:55:00.047Z,68.12
2022-12-25T19:58:01.687Z,68.44
2022-12-25T20:01:06.877Z,68.71
2022-12-25T20:04:09.937Z,68.14
2022-12-25T20:07:11.662Z,68.58
2022-12-25T20:10:13.297Z,68.73
2022-12-25T20:13:15.163Z,68.68
2022-12-25T20:16:23.425Z,68.79
2022-12-25T20:19:26.027Z,69.53
2022-12-25T20:22:30.195Z,71.01
2022-12-25T20:25:31.875Z,70.75
2022-12-25T20:28:35.590Z,68.84
2022-12-25T20:31:37.298Z,68.45
2022-12-25T20:34:39.493Z,68.89
2022-12-25T20:37:41.181Z,69.17
2022-12-25T20:41:24.631Z,69.13
2022-12-25T20:44:06.847Z,69.19
2022-12-25T20:47:08.831Z,69.39
2022-12-25T20:50:10.374Z,69.61
2022-12-25T20:53:12.965Z,70.03
2022-12-25T20:56:16.689Z,72.35
2022-12-25T20:59:37.905Z,75.62
2022-12-25T21:02:39.874Z,78.25
2022-12-25T21:05:49.905Z,80.20
2022-12-25T21:08:51.698Z,82.24
2022-12-25T21:11:53.407Z,84.67
2022-12-25T21:14:55.030Z,85.59
2022-12-25T21:17:56.732Z,87.32
2022-12-25T21:20:59.463Z,86.92
2022-12-25T21:24:01.006Z,88.09
2022-12-25T21:27:02.671Z,88.38
2022-12-25T21:30:15.124Z,88.55
2022-12-25T21:33:36.230Z,89.06
2022-12-25T21:36:37.965Z,86.09
2022-12-25T21:39:39.671Z,84.29
2022-12-25T21:42:41.178Z,85.59
2022-12-25T21:45:42.803Z,87.29
2022-12-25T21:48:44.876Z,88.28
2022-12-25T21:52:05.188Z,88.56
2022-12-25T21:55:07.203Z,89.46
2022-12-25T21:58:08.907Z,89.77
2022-12-25T22:01:11.772Z,90.23
2022-12-25T22:04:15.570Z,90.61
2022-12-25T22:07:17.108Z,91.11
2022-12-25T22:10:18.645Z,91.66
2022-12-25T22:13:38.919Z,88.79
2022-12-25T22:16:59.093Z,83.11
2022-12-25T22:20:00.902Z,76.59
2022-12-25T22:23:03.320Z,74.12
2022-12-25T22:26:05.174Z,72.64
2022-12-25T22:29:07.623Z,70.73
2022-12-25T22:32:10.708Z,69.67
2022-12-25T22:35:13.170Z,69.88
2022-12-25T22:38:14.881Z,69.32
2022-12-25T22:41:16.498Z,68.96
2022-12-25T22:44:18.648Z,69.05
2022-12-25T22:47:20.384Z,69.06
2022-12-25T22:50:22.144Z,68.97
2022-12-25T22:53:23.747Z,68.27
2022-12-25T22:56:25.285Z,68.08
2022-12-25T22:59:27.493Z,67.81
2022-12-25T23:02:29.214Z,68.39
2022-12-25T23:05:30.995Z,68.64
2022-12-25T23:08:32.529Z,68.82
2022-12-25T23:11:35.063Z,68.89
2022-12-25T23:14:40.934Z,68.82
2022-12-25T23:18:00.971Z,68.64
2022-12-25T23:21:21.161Z,68.87
2022-12-25T23:24:41.395Z,68.75
2022-12-25T23:27:44.320Z,69.02
2022-12-25T23:30:45.857Z,68.79
2022-12-25T23:33:47.485Z,68.46
2022-12-25T23:36:49.059Z,68.29
2022-12-25T23:39:50.635Z,68.05
2022-12-25T23:42:52.253Z,67.95
2022-12-25T23:45:53.860Z,67.96
2022-12-25T23:48:55.465Z,67.73
2022-12-25T23:51:57.126Z,67.71
2022-12-25T23:54:58.634Z,67.63
2022-12-25T23:58:00.211Z,67.96
